Time;durP1;ratioP1;P1;durP2;ratioP2;P2;SDS_P1;SDS_P2;PMS_P1;PMS_P2;Temp;Humidity;BMP_temperature;BMP_pressure;BME280_temperature;BME280_humidity;BME280_pressure;Samples;Min_cycle;Max_cycle;Signal;HPM_P1;HPM_P2
2022/07/07 00:01:45;;;;;;;12.02;5.15;;;16.90;99.90;;;;;;5009488;28;20109;-67
2022/07/07 00:04:11;;;;;;;11.82;5.18;;;16.90;99.90;;;;;;4991076;28;20050;-68
2022/07/07 00:06:37;;;;;;;14.23;5.00;;;16.80;99.90;;;;;;5015823;28;20432;-67
2022/07/07 00:09:04;;;;;;;12.30;4.45;;;16.90;99.90;;;;;;4993480;28;20049;-68
2022/07/07 00:11:30;;;;;;;13.57;5.22;;;16.90;99.90;;;;;;4992266;28;20061;-68
2022/07/07 00:13:56;;;;;;;8.60;4.90;;;16.90;99.90;;;;;;4978484;28;20485;-68
2022/07/07 00:16:22;;;;;;;8.40;4.75;;;16.90;99.90;;;;;;4978139;28;20119;-68
2022/07/07 00:18:49;;;;;;;11.15;4.47;;;16.90;99.90;;;;;;4995663;28;20057;-68
2022/07/07 00:21:16;;;;;;;6.75;4.50;;;16.90;99.90;;;;;;4993120;28;20109;-68
2022/07/07 00:23:41;;;;;;;10.57;4.22;;;16.90;99.90;;;;;;4977729;28;20034;-68
2022/07/07 00:26:08;;;;;;;10.05;4.30;;;16.90;99.90;;;;;;4979813;28;20048;-68
2022/07/07 00:28:34;;;;;;;10.23;4.30;;;16.90;99.90;;;;;;4996949;28;20132;-68
2022/07/07 00:31:00;;;;;;;9.95;4.43;;;16.90;99.90;;;;;;5013283;28;20124;-68
2022/07/07 00:33:27;;;;;;;8.95;4.25;;;16.90;99.90;;;;;;4995533;28;20164;-69
2022/07/07 00:35:53;;;;;;;5.95;4.22;;;16.90;99.90;;;;;;4993870;28;20060;-68
2022/07/07 00:38:19;;;;;;;9.20;4.93;;;16.90;99.90;;;;;;4995130;28;20076;-69
2022/07/07 00:40:52;;;;;;;7.68;4.50;;;16.90;99.90;;;;;;4989854;28;20396;-68
2022/07/07 00:43:18;;;;;;;7.72;3.63;;;16.80;99.90;;;;;;4993856;28;20474;-69
2022/07/07 00:45:48;;;;;;;5.88;3.25;;;16.80;99.90;;;;;;4995237;28;20056;-69
2022/07/07 00:48:15;;;;;;;6.50;2.85;;;16.70;99.90;;;;;;5013745;28;20574;-69
2022/07/07 00:50:43;;;;;;;6.22;2.85;;;16.60;99.90;;;;;;5012115;28;20056;-68
2022/07/07 00:53:09;;;;;;;7.13;2.80;;;16.60;99.90;;;;;;4993197;28;20058;-68
2022/07/07 00:55:34;;;;;;;10.35;2.90;;;16.60;99.90;;;;;;4990620;28;20511;-69
2022/07/07 00:58:00;;;;;;;6.85;2.78;;;16.50;99.90;;;;;;4999702;28;20052;-69
2022/07/07 01:00:26;;;;;;;9.73;2.67;;;16.50;99.90;;;;;;4995210;28;20088;-70
2022/07/07 01:02:52;;;;;;;7.90;2.90;;;16.50;99.90;;;;;;4994309;28;20073;-69
2022/07/07 01:05:18;;;;;;;6.55;2.88;;;16.50;99.90;;;;;;4993209;28;21277;-69
2022/07/07 01:07:46;;;;;;;9.38;2.90;;;16.40;99.90;;;;;;4977203;28;20046;-69
2022/07/07 01:10:11;;;;;;;5.75;3.08;;;16.40;99.90;;;;;;4975184;28;20045;-69
2022/07/07 01:12:39;;;;;;;8.02;2.88;;;16.40;99.90;;;;;;4975399;28;20054;-69
2022/07/07 01:15:07;;;;;;;7.05;3.30;;;16.40;99.90;;;;;;4971053;28;20104;-69
2022/07/07 01:17:33;;;;;;;6.63;3.30;;;16.40;99.90;;;;;;4995243;28;20421;-69
2022/07/07 01:20:00;;;;;;;8.80;3.05;;;16.30;99.90;;;;;;4969484;28;20534;-69
2022/07/07 01:22:29;;;;;;;6.15;3.25;;;16.30;99.90;;;;;;4981204;28;20080;-69
2022/07/07 01:24:55;;;;;;;8.05;3.67;;;16.30;99.90;;;;;;4973737;28;20046;-69
2022/07/07 01:27:21;;;;;;;7.00;3.30;;;16.30;99.90;;;;;;4995501;28;20073;-69
2022/07/07 01:29:51;;;;;;;7.22;3.45;;;16.30;99.90;;;;;;4995451;28;20060;-69
2022/07/07 01:32:17;;;;;;;6.55;3.47;;;16.30;99.90;;;;;;4997825;28;20050;-69
2022/07/07 01:34:45;;;;;;;9.40;3.90;;;16.30;99.90;;;;;;4976123;28;20053;-70
2022/07/07 01:37:11;;;;;;;8.65;3.60;;;16.30;99.90;;;;;;4993252;28;20622;-69
2022/07/07 01:39:38;;;;;;;6.30;3.58;;;16.30;99.90;;;;;;5012907;28;20056;-69
2022/07/07 01:42:05;;;;;;;6.75;3.40;;;16.30;99.90;;;;;;4983976;28;20050;-69
2022/07/07 01:44:32;;;;;;;10.43;3.80;;;16.20;99.90;;;;;;4946918;28;20038;-69
2022/07/07 01:46:57;;;;;;;14.70;4.35;;;16.30;99.90;;;;;;4980519;28;20046;-69
2022/07/07 01:49:25;;;;;;;8.20;3.75;;;16.30;99.90;;;;;;4978571;28;20048;-69
2022/07/07 01:51:51;;;;;;;10.65;3.95;;;16.30;99.90;;;;;;4994580;28;20058;-69
2022/07/07 01:54:17;;;;;;;12.48;4.03;;;16.30;99.90;;;;;;4969379;28;20127;-69
2022/07/07 01:56:43;;;;;;;13.90;3.80;;;16.30;99.90;;;;;;4999648;28;20061;-69
2022/07/07 01:59:09;;;;;;;14.90;4.20;;;16.30;99.90;;;;;;4982427;28;20061;-68
2022/07/07 02:01:35;;;;;;;12.18;4.30;;;16.30;99.90;;;;;;4999099;28;20058;-69
2022/07/07 02:04:01;;;;;;;10.05;3.70;;;16.30;99.90;;;;;;4999479;28;20042;-69
2022/07/07 02:06:27;;;;;;;11.50;3.67;;;16.30;99.90;;;;;;5000389;28;20081;-69
2022/07/07 02:08:53;;;;;;;12.23;3.75;;;16.30;99.90;;;;;;4994946;28;20048;-70
2022/07/07 02:11:18;;;;;;;9.70;2.97;;;16.30;99.90;;;;;;4945559;28;20099;-70
2022/07/07 02:13:47;;;;;;;12.40;2.90;;;16.30;99.90;;;;;;4996739;28;20140;-69
2022/07/07 02:16:15;;;;;;;10.13;2.90;;;16.30;99.90;;;;;;4999730;28;20038;-70
2022/07/07 02:18:42;;;;;;;9.27;3.17;;;16.30;99.90;;;;;;4974601;28;20046;-70
2022/07/07 02:21:10;;;;;;;16.70;3.35;;;16.30;99.90;;;;;;4998551;28;20125;-70
2022/07/07 02:23:37;;;;;;;10.18;3.65;;;16.30;99.90;;;;;;4993041;28;20140;-70
2022/07/07 02:26:03;;;;;;;11.63;3.13;;;16.30;99.90;;;;;;4998300;28;20156;-70
2022/07/07 02:28:29;;;;;;;13.25;3.65;;;16.30;99.90;;;;;;4979327;28;20061;-70
2022/07/07 02:30:56;;;;;;;10.10;2.92;;;16.30;99.90;;;;;;4980274;28;20054;-70
2022/07/07 02:33:23;;;;;;;13.60;3.58;;;16.30;99.90;;;;;;4998691;28;20049;-71
2022/07/07 02:35:50;;;;;;;17.98;3.40;;;16.30;99.90;;;;;;4976697;28;20045;-70
2022/07/07 02:38:16;;;;;;;11.38;2.53;;;16.30;99.90;;;;;;4994891;28;20045;-71
2022/07/07 02:40:42;;;;;;;10.00;3.15;;;16.30;99.90;;;;;;5005477;28;20053;-70
2022/07/07 02:43:12;;;;;;;8.55;2.67;;;16.30;99.90;;;;;;4980753;28;20042;-71
2022/07/07 02:45:47;;;;;;;13.70;2.97;;;16.30;99.90;;;;;;5000694;28;20045;-70
2022/07/07 02:48:15;;;;;;;13.20;2.80;;;16.30;99.90;;;;;;4995616;28;20582;-71
2022/07/07 02:50:41;;;;;;;9.30;2.55;;;16.30;99.90;;;;;;4978654;28;20510;-71
2022/07/07 02:53:08;;;;;;;9.65;3.08;;;16.30;99.90;;;;;;4993726;28;20061;-71
2022/07/07 02:55:35;;;;;;;11.30;2.53;;;16.30;99.90;;;;;;4997351;28;20510;-70
2022/07/07 02:58:02;;;;;;;14.75;2.78;;;16.30;99.90;;;;;;5013999;28;20131;-70
2022/07/07 03:00:28;;;;;;;13.80;2.83;;;16.30;99.90;;;;;;4980543;28;20763;-70
2022/07/07 03:02:55;;;;;;;11.60;3.05;;;16.20;99.90;;;;;;4978631;28;20042;-70
2022/07/07 03:05:22;;;;;;;11.73;2.85;;;16.30;99.90;;;;;;4995689;28;20128;-70
2022/07/07 03:07:49;;;;;;;10.10;3.10;;;16.20;99.90;;;;;;4963116;28;20555;-70
2022/07/07 03:10:15;;;;;;;12.93;2.90;;;16.30;99.90;;;;;;4993132;28;20057;-70
2022/07/07 03:12:41;;;;;;;14.27;3.50;;;16.20;99.90;;;;;;4988996;28;20046;-71
2022/07/07 03:15:08;;;;;;;10.60;3.13;;;16.20;99.90;;;;;;4989618;28;20050;-70
2022/07/07 03:17:35;;;;;;;10.65;3.00;;;16.20;99.90;;;;;;4959700;28;20697;-70
2022/07/07 03:20:01;;;;;;;12.65;3.20;;;16.20;99.90;;;;;;4994518;28;20080;-70
2022/07/07 03:22:27;;;;;;;10.10;2.30;;;16.20;99.90;;;;;;4961422;28;20117;-71
2022/07/07 03:24:53;;;;;;;11.20;2.15;;;16.20;99.90;;;;;;4992136;28;20516;-71
2022/07/07 03:27:19;;;;;;;8.57;1.77;;;16.20;99.90;;;;;;4964939;28;20069;-71
2022/07/07 03:29:45;;;;;;;13.32;2.28;;;16.10;99.90;;;;;;5010978;28;20455;-71
2022/07/07 03:32:11;;;;;;;9.65;1.77;;;16.10;99.90;;;;;;4980813;28;20057;-71
2022/07/07 03:34:37;;;;;;;12.30;2.15;;;16.00;99.90;;;;;;5004361;28;20511;-70
2022/07/07 03:37:03;;;;;;;12.25;1.90;;;16.00;99.90;;;;;;4982529;28;20058;-71
2022/07/07 03:39:29;;;;;;;12.40;2.15;;;16.00;99.90;;;;;;5007524;28;20060;-70
2022/07/07 03:41:55;;;;;;;10.07;2.03;;;15.90;99.90;;;;;;4996117;28;20047;-70
2022/07/07 03:44:21;;;;;;;10.23;2.05;;;15.90;99.90;;;;;;4975045;28;20570;-70
2022/07/07 03:46:46;;;;;;;8.73;1.33;;;15.90;99.90;;;;;;5013204;28;20598;-70
2022/07/07 03:49:12;;;;;;;6.60;1.15;;;15.90;99.90;;;;;;4973001;28;20042;-71
2022/07/07 03:51:38;;;;;;;6.78;1.40;;;15.80;99.90;;;;;;5007132;28;20046;-71
2022/07/07 03:54:04;;;;;;;6.13;1.45;;;15.80;99.90;;;;;;4995951;28;20187;-71
2022/07/07 03:56:30;;;;;;;8.10;1.70;;;15.80;99.90;;;;;;4961010;28;20141;-71
2022/07/07 03:58:56;;;;;;;9.43;1.98;;;15.70;99.90;;;;;;4991111;28;20499;-71
2022/07/07 04:01:21;;;;;;;10.23;1.52;;;15.70;99.90;;;;;;4949485;28;20100;-71
2022/07/07 04:03:47;;;;;;;8.50;2.08;;;15.70;99.90;;;;;;4980337;28;20038;-71
2022/07/07 04:06:13;;;;;;;9.75;1.70;;;15.70;99.90;;;;;;4993014;28;20034;-71
2022/07/07 04:08:39;;;;;;;10.43;1.90;;;15.70;99.90;;;;;;4949007;28;20625;-71
2022/07/07 04:11:05;;;;;;;8.48;1.65;;;15.70;99.90;;;;;;4981814;28;20042;-70
2022/07/07 04:13:31;;;;;;;10.30;1.98;;;15.70;99.90;;;;;;4980060;28;20042;-70
2022/07/07 04:15:56;;;;;;;10.02;1.77;;;15.70;99.90;;;;;;4976193;28;20049;-70
2022/07/07 04:18:22;;;;;;;11.82;1.83;;;15.70;99.90;;;;;;4959364;28;20496;-70
2022/07/07 04:20:48;;;;;;;14.38;2.47;;;15.60;99.90;;;;;;4992983;28;20049;-71
2022/07/07 04:23:14;;;;;;;12.75;2.28;;;15.60;99.90;;;;;;4994653;28;20046;-72
2022/07/07 04:25:41;;;;;;;14.80;3.35;;;15.60;99.90;;;;;;4997069;28;20049;-70
2022/07/07 04:28:07;;;;;;;10.75;2.17;;;15.60;99.90;;;;;;4996618;28;20041;-71
2022/07/07 04:30:33;;;;;;;12.13;1.95;;;15.60;99.90;;;;;;4978365;28;20084;-72
2022/07/07 04:32:59;;;;;;;13.18;2.20;;;15.50;99.90;;;;;;4981228;28;20049;-71
2022/07/07 04:35:25;;;;;;;7.05;1.90;;;15.50;99.90;;;;;;4991950;28;20518;-72
2022/07/07 04:37:51;;;;;;;12.68;1.95;;;15.50;99.90;;;;;;4992062;28;20053;-71
2022/07/07 04:40:17;;;;;;;10.00;1.92;;;15.50;99.90;;;;;;4977791;28;20060;-72
2022/07/07 04:42:43;;;;;;;7.43;1.80;;;15.50;99.90;;;;;;4993195;28;20078;-72
2022/07/07 04:45:09;;;;;;;11.13;1.92;;;15.50;99.90;;;;;;4979414;28;20542;-72
2022/07/07 04:47:40;;;;;;;7.63;1.60;;;15.50;99.90;;;;;;4994404;28;20077;-72
2022/07/07 04:50:08;;;;;;;11.85;2.15;;;15.50;99.90;;;;;;4990548;28;20527;-72
2022/07/07 04:52:33;;;;;;;8.95;1.80;;;15.50;99.90;;;;;;4975208;28;20498;-72
2022/07/07 04:54:59;;;;;;;12.60;1.90;;;15.50;99.90;;;;;;5009987;28;20048;-72
2022/07/07 04:57:25;;;;;;;18.55;2.22;;;15.50;99.90;;;;;;4993664;28;20053;-72
2022/07/07 04:59:51;;;;;;;9.77;1.88;;;15.50;99.90;;;;;;4997057;28;20041;-71
2022/07/07 05:02:16;;;;;;;9.43;2.08;;;15.50;99.90;;;;;;4972465;28;20080;-71
2022/07/07 05:04:42;;;;;;;11.02;2.67;;;15.50;99.90;;;;;;4995722;28;20046;-72
2022/07/07 05:07:08;;;;;;;12.93;2.83;;;15.50;99.90;;;;;;4993591;28;20049;-72
2022/07/07 05:09:37;;;;;;;10.52;2.47;;;15.50;99.90;;;;;;4967599;28;21533;-71
2022/07/07 05:12:03;;;;;;;16.95;2.70;;;15.50;99.90;;;;;;4995662;28;20046;-71
2022/07/07 05:14:29;;;;;;;11.30;3.05;;;15.40;99.90;;;;;;4979298;28;20108;-70
2022/07/07 05:16:55;;;;;;;13.40;2.70;;;15.40;99.90;;;;;;4991428;28;20102;-70
2022/07/07 05:19:22;;;;;;;14.25;2.53;;;15.40;99.90;;;;;;4972127;28;20364;-71
2022/07/07 05:21:49;;;;;;;14.20;3.38;;;15.30;99.90;;;;;;4986965;28;20049;-71
2022/07/07 05:24:15;;;;;;;15.95;2.72;;;15.40;99.90;;;;;;4995320;28;20049;-72
2022/07/07 05:26:40;;;;;;;17.60;3.30;;;15.40;99.90;;;;;;4997369;28;20053;-72
2022/07/07 05:29:06;;;;;;;11.80;2.75;;;15.40;99.90;;;;;;4990903;28;20504;-70
2022/07/07 05:31:33;;;;;;;13.98;2.72;;;15.40;99.90;;;;;;4973183;28;20511;-70
2022/07/07 05:33:58;;;;;;;12.93;3.15;;;15.40;99.90;;;;;;4963494;28;20052;-73
2022/07/07 05:36:24;;;;;;;16.25;2.92;;;15.40;99.90;;;;;;4994120;28;20054;-71
2022/07/07 05:38:50;;;;;;;14.77;2.65;;;15.50;99.90;;;;;;4989042;28;20108;-71
2022/07/07 05:41:17;;;;;;;12.80;2.60;;;15.50;99.90;;;;;;4979591;28;20484;-71
2022/07/07 05:43:42;;;;;;;13.77;3.17;;;15.50;99.90;;;;;;5004048;28;20119;-71
2022/07/07 05:46:09;;;;;;;13.85;2.70;;;15.60;99.90;;;;;;4975133;28;20042;-71
2022/07/07 05:48:34;;;;;;;10.98;2.47;;;15.60;99.90;;;;;;4961214;28;20049;-70
2022/07/07 05:51:00;;;;;;;13.93;2.25;;;15.60;99.90;;;;;;4975597;28;20096;-70
2022/07/07 05:53:26;;;;;;;15.13;2.63;;;15.60;99.90;;;;;;4968281;28;20046;-70
2022/07/07 05:55:52;;;;;;;17.58;2.28;;;15.70;99.90;;;;;;4969586;28;20703;-70
2022/07/07 05:58:18;;;;;;;16.00;2.83;;;15.70;99.90;;;;;;4978075;28;20042;-70
2022/07/07 06:00:43;;;;;;;12.13;2.35;;;15.70;99.90;;;;;;4987632;28;20052;-70
2022/07/07 06:03:09;;;;;;;11.48;2.63;;;15.70;99.90;;;;;;4993437;28;20049;-71
2022/07/07 06:05:35;;;;;;;7.88;1.90;;;15.60;99.90;;;;;;4998609;28;20164;-70
2022/07/07 06:08:01;;;;;;;11.10;2.35;;;15.60;99.90;;;;;;4996874;28;20127;-70
2022/07/07 06:10:27;;;;;;;11.50;2.22;;;15.70;99.90;;;;;;4988669;28;20042;-70
2022/07/07 06:12:53;;;;;;;10.93;1.90;;;15.80;99.90;;;;;;4973091;28;20814;-61
2022/07/07 06:15:20;;;;;;;13.15;2.20;;;15.90;99.90;;;;;;4992573;28;20041;-57
2022/07/07 06:17:48;;;;;;;11.43;1.98;;;16.00;99.90;;;;;;4988879;28;20058;-57
2022/07/07 06:20:13;;;;;;;8.82;1.88;;;16.20;99.90;;;;;;5005088;28;20048;-57
2022/07/07 06:22:39;;;;;;;5.18;1.83;;;16.30;99.90;;;;;;5004178;28;20049;-56
2022/07/07 06:25:08;;;;;;;9.77;1.70;;;16.40;99.90;;;;;;4999323;28;20136;-57
2022/07/07 06:27:35;;;;;;;7.72;1.70;;;16.50;99.90;;;;;;5001183;28;20088;-57
2022/07/07 06:30:05;;;;;;;10.23;2.05;;;16.50;99.90;;;;;;5019121;28;20515;-57
2022/07/07 06:32:31;;;;;;;7.72;1.50;;;16.50;99.90;;;;;;5000985;28;20494;-57
2022/07/07 06:34:57;;;;;;;7.38;1.70;;;16.50;99.90;;;;;;5002713;28;20125;-57
2022/07/07 06:37:23;;;;;;;9.48;1.98;;;16.50;99.90;;;;;;5000783;28;20125;-57
2022/07/07 06:39:50;;;;;;;15.20;1.65;;;16.40;99.90;;;;;;5000298;28;20057;-58
2022/07/07 06:42:16;;;;;;;10.90;1.60;;;16.50;99.90;;;;;;5003791;28;20389;-57
2022/07/07 06:44:42;;;;;;;6.03;1.10;;;16.50;99.90;;;;;;5002017;28;20052;-57
2022/07/07 06:47:08;;;;;;;4.18;0.88;;;16.60;99.90;;;;;;5017225;28;20843;-56
2022/07/07 06:49:34;;;;;;;7.75;1.10;;;16.50;99.90;;;;;;5004546;28;20041;-56
2022/07/07 06:52:00;;;;;;;4.97;1.00;;;16.40;99.90;;;;;;5004449;28;20059;-58
2022/07/07 06:54:26;;;;;;;3.63;1.00;;;16.30;99.90;;;;;;5001441;28;20500;-55
2022/07/07 06:56:52;;;;;;;3.33;1.00;;;16.30;99.90;;;;;;5002892;28;20046;-57
2022/07/07 06:59:18;;;;;;;5.47;0.98;;;16.30;99.90;;;;;;5000023;28;20645;-58
2022/07/07 07:01:44;;;;;;;8.18;1.13;;;16.30;99.90;;;;;;4999412;28;20046;-56
2022/07/07 07:04:13;;;;;;;8.35;1.30;;;16.30;99.90;;;;;;5003326;28;20045;-57
2022/07/07 07:06:41;;;;;;;6.40;0.95;;;16.40;99.90;;;;;;5000502;28;20061;-57
2022/07/07 07:09:07;;;;;;;3.22;0.88;;;16.40;99.90;;;;;;4999964;28;20099;-57
2022/07/07 07:11:32;;;;;;;7.55;1.40;;;16.40;99.90;;;;;;5015602;28;20439;-57
2022/07/07 07:14:01;;;;;;;3.83;0.93;;;16.40;99.90;;;;;;5000176;28;20161;-58
2022/07/07 07:16:28;;;;;;;3.08;0.80;;;16.50;99.90;;;;;;5004543;28;20034;-57
2022/07/07 07:18:54;;;;;;;3.63;0.70;;;16.50;99.90;;;;;;4997199;28;20093;-57
2022/07/07 07:21:19;;;;;;;4.15;1.42;;;16.60;99.90;;;;;;5005132;28;20541;-57
2022/07/07 07:23:45;;;;;;;7.75;1.23;;;16.70;99.90;;;;;;4999405;28;20046;-57
2022/07/07 07:26:11;;;;;;;9.30;1.27;;;16.80;99.90;;;;;;5003478;28;20511;-54
2022/07/07 07:28:37;;;;;;;10.68;1.20;;;17.00;99.90;;;;;;5015996;28;20084;-57
2022/07/07 07:31:03;;;;;;;7.15;1.17;;;17.10;99.90;;;;;;5000019;28;20148;-57
2022/07/07 07:33:30;;;;;;;4.47;1.10;;;17.20;99.90;;;;;;5000614;28;20100;-57
2022/07/07 07:36:00;;;;;;;5.75;1.25;;;17.30;99.90;;;;;;5001868;28;20050;-56
2022/07/07 07:38:25;;;;;;;6.07;1.20;;;17.30;99.90;;;;;;4999909;28;20053;-58
2022/07/07 07:40:51;;;;;;;5.72;1.33;;;17.30;99.90;;;;;;4979075;28;20088;-57
2022/07/07 07:43:17;;;;;;;5.50;1.17;;;17.30;99.90;;;;;;5003210;28;20480;-58
2022/07/07 07:45:43;;;;;;;5.45;1.00;;;17.10;99.90;;;;;;4995600;28;20451;-56
2022/07/07 07:48:09;;;;;;;6.03;1.10;;;17.00;99.90;;;;;;4998184;28;20042;-57
2022/07/07 07:50:34;;;;;;;6.18;1.17;;;16.90;99.90;;;;;;5001986;28;20042;-58
2022/07/07 07:53:04;;;;;;;7.60;1.30;;;16.80;99.90;;;;;;4999812;28;20045;-56
2022/07/07 07:55:31;;;;;;;7.57;1.10;;;16.80;99.90;;;;;;5003151;28;20038;-58
2022/07/07 07:57:57;;;;;;;6.32;1.27;;;16.80;99.90;;;;;;4997266;28;20068;-56
2022/07/07 08:00:23;;;;;;;7.03;1.23;;;16.80;99.90;;;;;;5001033;28;20157;-57
2022/07/07 08:02:49;;;;;;;7.90;1.60;;;16.80;99.90;;;;;;5001941;28;20049;-56
2022/07/07 08:05:17;;;;;;;6.47;1.50;;;16.80;99.90;;;;;;4999343;28;20045;-58
2022/07/07 08:07:44;;;;;;;8.13;1.50;;;16.90;99.90;;;;;;5001064;28;20531;-57
2022/07/07 08:10:11;;;;;;;6.40;1.55;;;17.10;99.90;;;;;;4998707;28;20520;-56
2022/07/07 08:12:37;;;;;;;6.82;1.42;;;17.30;99.90;;;;;;5002263;28;20092;-56
2022/07/07 08:15:05;;;;;;;7.10;1.60;;;17.40;99.90;;;;;;5000394;28;20403;-57
2022/07/07 08:17:31;;;;;;;11.13;1.95;;;17.40;99.90;;;;;;5001483;28;20049;-57
2022/07/07 08:19:56;;;;;;;6.80;1.30;;;17.30;99.90;;;;;;4997701;28;20750;-58
2022/07/07 08:22:22;;;;;;;5.90;1.70;;;17.30;99.90;;;;;;5003054;28;20048;-56
2022/07/07 08:24:48;;;;;;;8.77;1.58;;;17.30;99.90;;;;;;5002016;28;20612;-57
2022/07/07 08:27:14;;;;;;;9.60;1.83;;;17.30;99.90;;;;;;4999783;28;20042;-58
2022/07/07 08:29:40;;;;;;;11.73;2.45;;;17.40;99.90;;;;;;5000852;28;20506;-58
2022/07/07 08:32:08;;;;;;;9.45;2.30;;;17.40;99.90;;;;;;4998610;28;20411;-57
2022/07/07 08:34:34;;;;;;;12.23;2.47;;;17.40;99.90;;;;;;4999073;28;20049;-55
2022/07/07 08:37:00;;;;;;;12.32;2.05;;;17.50;99.90;;;;;;5003442;28;20060;-56
2022/07/07 08:39:26;;;;;;;11.65;2.20;;;17.50;99.90;;;;;;5000555;28;20049;-57
2022/07/07 08:41:52;;;;;;;10.68;2.10;;;17.50;99.90;;;;;;5001769;28;20444;-58
2022/07/07 08:44:20;;;;;;;6.40;2.30;;;17.60;99.90;;;;;;5000968;28;20102;-57
2022/07/07 08:46:46;;;;;;;10.77;2.20;;;17.60;99.90;;;;;;4997686;28;20046;-56
2022/07/07 08:49:11;;;;;;;7.78;2.03;;;17.70;99.90;;;;;;5016736;28;20395;-57
2022/07/07 08:51:44;;;;;;;8.63;1.92;;;17.80;99.90;;;;;;4999034;28;20048;-56
2022/07/07 08:54:11;;;;;;;11.80;2.10;;;17.80;99.90;;;;;;4999846;28;20128;-56
2022/07/07 08:56:38;;;;;;;6.18;1.75;;;17.80;99.90;;;;;;5002388;28;20042;-58
2022/07/07 08:59:06;;;;;;;4.53;1.10;;;17.90;99.90;;;;;;4999137;28;20550;-57
2022/07/07 09:01:32;;;;;;;2.40;1.00;;;17.80;99.90;;;;;;5001855;28;20073;-57
2022/07/07 09:03:59;;;;;;;4.32;1.30;;;17.70;99.90;;;;;;5013127;28;20042;-56
2022/07/07 09:06:25;;;;;;;3.17;1.17;;;17.60;99.90;;;;;;4998996;28;20554;-57
2022/07/07 09:08:52;;;;;;;6.15;1.60;;;17.60;99.90;;;;;;5000712;28;20050;-58
2022/07/07 09:11:32;;;;;;;4.00;1.15;;;17.70;99.90;;;;;;5001673;28;20049;-56
2022/07/07 09:14:16;;;;;;;6.25;1.30;;;17.80;99.90;;;;;;5000571;28;20121;-57
2022/07/07 09:16:42;;;;;;;7.90;1.50;;;18.00;99.90;;;;;;4997110;28;20046;-56
2022/07/07 09:19:25;;;;;;;5.10;1.40;;;18.20;99.90;;;;;;4996731;28;20050;-58
2022/07/07 09:21:51;;;;;;;5.07;1.67;;;18.20;99.90;;;;;;5000295;28;20054;-55
2022/07/07 09:24:18;;;;;;;13.68;1.38;;;18.30;99.90;;;;;;4998200;28;20049;-57
2022/07/07 09:26:47;;;;;;;5.70;1.40;;;18.30;99.90;;;;;;5000701;28;20045;-57
2022/07/07 09:29:20;;;;;;;8.65;2.45;;;18.30;99.90;;;;;;4998324;28;20116;-57
2022/07/07 09:31:50;;;;;;;;;;;18.30;99.90;;;;;;5002530;28;20789;-57
2022/07/07 09:34:16;;;;;;;6.00;1.40;;;18.20;99.90;;;;;;4998715;28;20256;-57
2022/07/07 09:39:48;;;;;;;7.80;1.67;;;18.10;99.90;;;;;;5011708;28;20908;-59
2022/07/07 09:42:25;;;;;;;5.25;1.35;;;18.10;99.90;;;;;;4998983;28;20057;-59
2022/07/07 09:44:55;;;;;;;4.50;0.80;;;18.10;99.90;;;;;;5000328;28;20046;-57
2022/07/07 09:47:23;;;;;;;3.58;0.93;;;17.90;99.90;;;;;;5015408;28;20050;-58
2022/07/07 09:49:59;;;;;;;4.32;0.80;;;17.70;99.90;;;;;;5011979;28;20143;-58
2022/07/07 09:52:26;;;;;;;5.22;1.67;;;17.70;99.90;;;;;;4990543;28;20145;-57
2022/07/07 09:54:53;;;;;;;4.88;0.93;;;17.60;99.90;;;;;;4996834;28;20049;-56
2022/07/07 09:57:19;;;;;;;2.75;0.82;;;17.70;99.90;;;;;;4994654;28;20046;-57
2022/07/07 09:59:45;;;;;;;7.47;1.65;;;17.80;99.90;;;;;;5001043;28;20406;-58
2022/07/07 10:02:27;;;;;;;6.63;1.15;;;17.90;99.90;;;;;;5000760;28;20089;-57
2022/07/07 10:04:58;;;;;;;5.53;1.20;;;17.90;99.90;;;;;;5003229;28;20049;-58
2022/07/07 10:07:32;;;;;;;8.23;1.25;;;18.00;99.90;;;;;;4997838;28;20057;-57
2022/07/07 10:10:06;;;;;;;5.32;1.40;;;18.20;99.90;;;;;;4999855;28;20480;-57
2022/07/07 10:12:33;;;;;;;6.88;1.17;;;18.50;99.90;;;;;;5001847;28;24922;-59
2022/07/07 10:15:12;;;;;;;6.47;1.60;;;18.60;99.90;;;;;;5003448;28;20095;-57
2022/07/07 10:17:39;;;;;;;10.25;2.38;;;18.50;99.90;;;;;;5003430;28;20503;-59
2022/07/07 10:20:06;;;;;;;20.73;2.35;;;18.40;99.90;;;;;;5001660;28;20057;-58
2022/07/07 10:22:34;;;;;;;13.30;2.60;;;18.20;99.90;;;;;;5001892;28;20488;-57
2022/07/07 10:25:02;;;;;;;9.13;1.80;;;18.10;99.90;;;;;;5001716;28;20046;-58
2022/07/07 10:27:28;;;;;;;13.20;1.77;;;18.00;99.90;;;;;;5004256;28;20124;-58
2022/07/07 10:29:59;;;;;;;12.88;1.80;;;17.90;99.90;;;;;;5002933;28;20807;-58
2022/07/07 10:32:24;;;;;;;9.45;2.15;;;17.80;99.90;;;;;;5002884;28;20041;-57
2022/07/07 10:34:56;;;;;;;13.98;2.28;;;17.70;99.90;;;;;;5003965;28;20561;-58
2022/07/07 10:37:24;;;;;;;12.93;2.10;;;17.70;99.90;;;;;;5004094;28;20052;-58
2022/07/07 10:39:56;;;;;;;19.52;2.30;;;17.60;99.90;;;;;;5002177;28;20049;-57
2022/07/07 10:42:43;;;;;;;26.77;3.45;;;17.60;99.90;;;;;;5001554;28;20480;-58
2022/07/07 10:45:10;;;;;;;20.65;3.65;;;17.60;99.90;;;;;;5001561;28;20046;-58
2022/07/07 10:47:36;;;;;;;15.18;3.30;;;17.50;99.90;;;;;;5001105;28;20046;-57
2022/07/07 10:50:20;;;;;;;14.07;2.55;;;17.60;99.90;;;;;;5004669;28;20092;-59
2022/07/07 10:52:46;;;;;;;19.42;2.67;;;17.60;99.90;;;;;;5003432;28;20484;-58
2022/07/07 10:55:12;;;;;;;21.08;3.03;;;17.60;99.90;;;;;;4999452;28;20184;-59
2022/07/07 10:57:47;;;;;;;15.07;2.88;;;17.70;99.90;;;;;;5001842;28;20048;-58
2022/07/07 11:00:26;;;;;;;15.77;2.78;;;17.70;99.90;;;;;;5004141;28;20554;-58
2022/07/07 11:03:13;;;;;;;16.42;2.72;;;17.70;99.90;;;;;;5002640;28;20046;-57
2022/07/07 11:05:44;;;;;;;20.45;3.15;;;17.50;99.90;;;;;;5001920;28;20049;-58
2022/07/07 11:08:12;;;;;;;13.75;3.00;;;17.40;99.90;;;;;;5004926;28;20164;-59
2022/07/07 11:10:46;;;;;;;14.68;2.63;;;17.30;99.90;;;;;;4999867;28;20495;-58
2022/07/07 11:13:30;;;;;;;19.63;3.58;;;17.30;99.90;;;;;;4999129;28;20477;-58
2022/07/07 11:16:13;;;;;;;14.88;2.78;;;17.30;99.90;;;;;;5004010;28;20060;-58
2022/07/07 11:18:41;;;;;;;12.40;2.70;;;17.30;99.90;;;;;;5002181;28;20517;-58
2022/07/07 11:21:08;;;;;;;12.68;2.55;;;17.30;99.90;;;;;;5017349;28;20088;-58
2022/07/07 11:23:54;;;;;;;19.02;3.08;;;17.40;99.90;;;;;;4999225;28;20046;-57
2022/07/07 11:26:25;;;;;;;11.18;2.28;;;17.60;99.90;;;;;;5000174;28;20136;-58
2022/07/07 11:28:56;;;;;;;12.98;1.90;;;17.60;99.90;;;;;;5002118;28;20601;-57
2022/07/07 11:31:23;;;;;;;12.13;2.28;;;17.80;99.90;;;;;;5000899;28;20053;-58
2022/07/07 11:33:54;;;;;;;8.23;1.90;;;17.80;99.60;;;;;;5000227;28;20050;-58
2022/07/07 11:36:21;;;;;;;12.68;2.30;;;18.00;99.00;;;;;;4995644;28;20412;-58
2022/07/07 11:38:53;;;;;;;7.18;1.88;;;18.20;99.10;;;;;;4996182;28;20042;-59
2022/07/07 11:41:20;;;;;;;15.10;2.63;;;18.40;98.00;;;;;;4993102;28;20069;-59
2022/07/07 11:43:56;;;;;;;14.10;2.17;;;18.60;97.40;;;;;;4990187;28;20050;-58
2022/07/07 11:46:24;;;;;;;12.13;1.90;;;18.60;97.30;;;;;;4989020;28;20050;-59
2022/07/07 11:48:49;;;;;;;9.18;1.80;;;18.60;96.70;;;;;;4989448;28;20061;-58
2022/07/07 11:51:16;;;;;;;8.98;2.05;;;18.50;95.80;;;;;;4990886;28;20034;-59
2022/07/07 11:53:42;;;;;;;8.65;2.35;;;18.60;95.20;;;;;;4991947;28;20060;-59
2022/07/07 11:56:08;;;;;;;12.52;2.35;;;18.60;95.70;;;;;;5001799;28;20062;-58
2022/07/07 11:58:34;;;;;;;19.90;3.00;;;18.70;96.00;;;;;;5003803;28;20103;-59
2022/07/07 12:01:00;;;;;;;19.15;3.08;;;18.80;96.00;;;;;;4999314;28;20045;-59
2022/07/07 12:03:34;;;;;;;16.90;3.33;;;18.90;96.50;;;;;;4995630;28;20195;-59
2022/07/07 12:06:01;;;;;;;13.82;2.90;;;18.90;97.10;;;;;;5000428;28;20050;-56
2022/07/07 12:08:35;;;;;;;14.85;3.25;;;18.90;97.70;;;;;;5002772;28;20033;-57
2022/07/07 12:11:02;;;;;;;16.17;2.80;;;18.90;97.60;;;;;;5004199;28;20044;-57
2022/07/07 12:13:28;;;;;;;16.30;3.08;;;18.80;97.70;;;;;;4993667;28;20073;-59
2022/07/07 12:15:54;;;;;;;16.83;3.20;;;18.60;97.60;;;;;;4994704;28;20060;-58
2022/07/07 12:18:42;;;;;;;14.05;2.83;;;18.60;98.10;;;;;;4993650;28;20538;-57
2022/07/07 12:21:09;;;;;;;9.48;2.90;;;18.60;98.50;;;;;;4985619;28;20097;-59
2022/07/07 12:23:41;;;;;;;13.93;2.50;;;18.80;98.70;;;;;;4993394;28;20156;-59
2022/07/07 12:26:16;;;;;;;8.37;2.30;;;18.90;97.30;;;;;;4998218;28;20396;-58
2022/07/07 12:28:43;;;;;;;10.15;2.15;;;19.00;96.30;;;;;;4989753;28;20050;-58
2022/07/07 12:31:18;;;;;;;14.02;2.38;;;19.00;95.00;;;;;;4986306;28;20133;-57
2022/07/07 12:33:44;;;;;;;10.73;2.35;;;18.90;94.20;;;;;;4986891;28;20064;-57
2022/07/07 12:36:16;;;;;;;12.90;2.22;;;18.90;94.50;;;;;;4991725;28;20074;-56
2022/07/07 12:38:53;;;;;;;11.85;2.15;;;18.90;95.10;;;;;;4990456;28;20046;-58
2022/07/07 12:41:26;;;;;;;14.98;2.30;;;18.80;94.90;;;;;;4986920;28;20057;-58
2022/07/07 12:44:10;;;;;;;12.93;3.17;;;18.70;95.00;;;;;;4988499;28;20041;-59
2022/07/07 12:46:36;;;;;;;16.15;2.95;;;18.40;95.30;;;;;;4988150;28;20045;-58